sensor_id;sensor_type;location;lat;lon;timestamp;pressure;altitude;pressure_sealevel;temperature;humidity
65384;BME280;51986;52.788;41.368;2023-04-04T00:00:01;98876.13;;;11.26;41.69
65384;BME280;51986;52.788;41.368;2023-04-04T00:02:29;98888.53;;;11.29;41.95
65384;BME280;51986;52.788;41.368;2023-04-04T00:04:56;98870.16;;;11.22;42.08
65384;BME280;51986;52.788;41.368;2023-04-04T00:07:23;98872.38;;;11.24;41.40
65384;BME280;51986;52.788;41.368;2023-04-04T00:09:50;98870.38;;;11.31;41.79
65384;BME280;51986;52.788;41.368;2023-04-04T00:12:17;98871.47;;;11.34;41.99
65384;BME280;51986;52.788;41.368;2023-04-04T00:14:44;98860.91;;;11.34;41.88
65384;BME280;51986;52.788;41.368;2023-04-04T00:17:11;98872.06;;;11.42;42.00
65384;BME280;51986;52.788;41.368;2023-04-04T00:19:38;98874.22;;;11.47;42.03
65384;BME280;51986;52.788;41.368;2023-04-04T00:22:05;98846.47;;;11.39;41.52
65384;BME280;51986;52.788;41.368;2023-04-04T00:24:32;98884.31;;;11.32;42.14
65384;BME280;51986;52.788;41.368;2023-04-04T00:26:59;98876.06;;;11.30;41.93
65384;BME280;51986;52.788;41.368;2023-04-04T00:29:26;98870.31;;;11.35;41.72
65384;BME280;51986;52.788;41.368;2023-04-04T00:31:53;98873.75;;;11.32;42.02
65384;BME280;51986;52.788;41.368;2023-04-04T00:34:20;98888.91;;;11.28;42.48
65384;BME280;51986;52.788;41.368;2023-04-04T00:36:47;98874.09;;;11.34;42.49
65384;BME280;51986;52.788;41.368;2023-04-04T00:39:13;98883.09;;;11.17;42.71
65384;BME280;51986;52.788;41.368;2023-04-04T00:41:40;98879.25;;;11.21;42.89
65384;BME280;51986;52.788;41.368;2023-04-04T00:44:07;98860.03;;;11.21;42.59
65384;BME280;51986;52.788;41.368;2023-04-04T00:46:34;98890.97;;;11.20;42.91
65384;BME280;51986;52.788;41.368;2023-04-04T00:49:02;98879.78;;;11.32;43.06
65384;BME280;51986;52.788;41.368;2023-04-04T00:51:28;98877.13;;;11.32;42.87
65384;BME280;51986;52.788;41.368;2023-04-04T00:53:55;98879.44;;;11.30;42.86
65384;BME280;51986;52.788;41.368;2023-04-04T00:56:22;98874.66;;;11.25;42.69
65384;BME280;51986;52.788;41.368;2023-04-04T00:58:49;98890.97;;;11.20;42.94
65384;BME280;51986;52.788;41.368;2023-04-04T01:01:17;98886.63;;;11.30;42.96
65384;BME280;51986;52.788;41.368;2023-04-04T01:03:44;98880.78;;;11.19;43.13
65384;BME280;51986;52.788;41.368;2023-04-04T01:06:13;98872.88;;;11.19;43.42
65384;BME280;51986;52.788;41.368;2023-04-04T01:08:41;98859.81;;;11.12;43.49
65384;BME280;51986;52.788;41.368;2023-04-04T01:11:09;98880.03;;;11.18;43.51
65384;BME280;51986;52.788;41.368;2023-04-04T01:13:36;98864.72;;;11.09;43.60
65384;BME280;51986;52.788;41.368;2023-04-04T01:16:03;98886.63;;;10.87;43.95
65384;BME280;51986;52.788;41.368;2023-04-04T01:18:32;98874.53;;;10.89;44.21
65384;BME280;51986;52.788;41.368;2023-04-04T01:21:02;98890.25;;;10.96;44.63
65384;BME280;51986;52.788;41.368;2023-04-04T01:23:40;98886.47;;;10.74;44.96
65384;BME280;51986;52.788;41.368;2023-04-04T01:26:11;98891.50;;;10.65;44.62
65384;BME280;51986;52.788;41.368;2023-04-04T01:28:38;98870.72;;;10.67;44.84
65384;BME280;51986;52.788;41.368;2023-04-04T01:31:11;98900.97;;;10.86;45.23
65384;BME280;51986;52.788;41.368;2023-04-04T01:33:54;98875.91;;;10.74;45.23
65384;BME280;51986;52.788;41.368;2023-04-04T01:36:46;98874.75;;;10.75;45.19
65384;BME280;51986;52.788;41.368;2023-04-04T01:39:25;98899.94;;;10.79;45.01
65384;BME280;51986;52.788;41.368;2023-04-04T01:41:55;98903.53;;;10.66;45.18
65384;BME280;51986;52.788;41.368;2023-04-04T01:44:23;98876.78;;;10.67;45.54
65384;BME280;51986;52.788;41.368;2023-04-04T01:46:54;98874.44;;;10.73;45.24
65384;BME280;51986;52.788;41.368;2023-04-04T01:49:22;98877.44;;;10.71;45.10
65384;BME280;51986;52.788;41.368;2023-04-04T01:51:52;98887.94;;;10.75;45.30
65384;BME280;51986;52.788;41.368;2023-04-04T01:54:20;98890.03;;;10.64;45.56
65384;BME280;51986;52.788;41.368;2023-04-04T01:56:47;98897.56;;;10.62;46.14
65384;BME280;51986;52.788;41.368;2023-04-04T01:59:14;98901.31;;;10.64;46.18
65384;BME280;51986;52.788;41.368;2023-04-04T02:01:41;98909.56;;;10.66;46.12
65384;BME280;51986;52.788;41.368;2023-04-04T02:04:08;98895.50;;;10.49;46.73
65384;BME280;51986;52.788;41.368;2023-04-04T02:06:35;98902.72;;;10.45;47.07
65384;BME280;51986;52.788;41.368;2023-04-04T02:09:04;98898.56;;;10.48;47.36
65384;BME280;51986;52.788;41.368;2023-04-04T02:11:31;98898.56;;;10.48;47.35
65384;BME280;51986;52.788;41.368;2023-04-04T02:13:58;98894.81;;;10.45;47.36
65384;BME280;51986;52.788;41.368;2023-04-04T02:16:26;98898.56;;;10.48;47.59
65384;BME280;51986;52.788;41.368;2023-04-04T02:18:53;98895.50;;;10.49;47.34
65384;BME280;51986;52.788;41.368;2023-04-04T02:21:21;98899.34;;;10.45;47.37
65384;BME280;51986;52.788;41.368;2023-04-04T02:23:48;98899.75;;;10.43;47.33
65384;BME280;51986;52.788;41.368;2023-04-04T02:26:15;98909.97;;;10.38;47.38
65384;BME280;51986;52.788;41.368;2023-04-04T02:28:42;98892.72;;;10.33;47.90
65384;BME280;51986;52.788;41.368;2023-04-04T02:31:09;98904.81;;;10.30;48.01
65384;BME280;51986;52.788;41.368;2023-04-04T02:33:36;98910.06;;;10.34;47.52
65384;BME280;51986;52.788;41.368;2023-04-04T02:36:05;98916.88;;;10.28;48.77
65384;BME280;51986;52.788;41.368;2023-04-04T02:38:32;98906.72;;;10.26;48.86
65384;BME280;51986;52.788;41.368;2023-04-04T02:41:02;98892.66;;;10.10;49.82
65384;BME280;51986;52.788;41.368;2023-04-04T02:43:29;98928.22;;;10.25;50.04
65384;BME280;51986;52.788;41.368;2023-04-04T02:45:56;98900.31;;;10.27;50.49
65384;BME280;51986;52.788;41.368;2023-04-04T02:48:26;98906.59;;;10.37;50.22
65384;BME280;51986;52.788;41.368;2023-04-04T02:50:57;98910.81;;;10.31;50.33
65384;BME280;51986;52.788;41.368;2023-04-04T02:53:25;98899.97;;;10.25;50.68
65384;BME280;51986;52.788;41.368;2023-04-04T02:55:54;98910.44;;;10.32;50.80
65384;BME280;51986;52.788;41.368;2023-04-04T02:58:21;98908.47;;;10.10;51.51
65384;BME280;51986;52.788;41.368;2023-04-04T03:00:54;98911.47;;;10.12;51.83
65384;BME280;51986;52.788;41.368;2023-04-04T03:03:26;98909.97;;;10.11;52.26
65384;BME280;51986;52.788;41.368;2023-04-04T03:05:53;98926.25;;;10.02;52.74
65384;BME280;51986;52.788;41.368;2023-04-04T03:08:20;98918.16;;;10.16;53.58
65384;BME280;51986;52.788;41.368;2023-04-04T03:10:47;98900.22;;;10.07;54.86
65384;BME280;51986;52.788;41.368;2023-04-04T03:13:14;98900.13;;;10.15;54.61
65384;BME280;51986;52.788;41.368;2023-04-04T03:15:41;98915.44;;;10.23;55.38
65384;BME280;51986;52.788;41.368;2023-04-04T03:18:08;98915.69;;;10.05;55.81
65384;BME280;51986;52.788;41.368;2023-04-04T03:20:35;98909.59;;;10.09;56.12
65384;BME280;51986;52.788;41.368;2023-04-04T03:23:02;98931.31;;;10.20;56.40
65384;BME280;51986;52.788;41.368;2023-04-04T03:25:29;98919.63;;;10.21;56.57
65384;BME280;51986;52.788;41.368;2023-04-04T03:27:56;98926.63;;;10.35;57.39
65384;BME280;51986;52.788;41.368;2023-04-04T03:30:25;98923.94;;;10.38;56.76
65384;BME280;51986;52.788;41.368;2023-04-04T03:32:52;98918.31;;;10.36;56.65
65384;BME280;51986;52.788;41.368;2023-04-04T03:35:19;98917.22;;;10.34;57.17
65384;BME280;51986;52.788;41.368;2023-04-04T03:37:46;98925.25;;;10.50;56.65
65384;BME280;51986;52.788;41.368;2023-04-04T03:40:13;98901.88;;;10.52;56.65
65384;BME280;51986;52.788;41.368;2023-04-04T03:42:40;98936.06;;;10.59;56.77
65384;BME280;51986;52.788;41.368;2023-04-04T03:45:10;98945.81;;;10.62;57.17
65384;BME280;51986;52.788;41.368;2023-04-04T03:47:40;98925.47;;;10.63;56.54
65384;BME280;51986;52.788;41.368;2023-04-04T03:50:08;98919.31;;;10.69;56.83
65384;BME280;51986;52.788;41.368;2023-04-04T03:52:39;98926.09;;;10.70;56.38
65384;BME280;51986;52.788;41.368;2023-04-04T03:55:06;98943.94;;;10.86;56.45
65384;BME280;51986;52.788;41.368;2023-04-04T03:57:33;98949.31;;;11.02;56.16
65384;BME280;51986;52.788;41.368;2023-04-04T04:00:02;98951.84;;;11.09;55.74
65384;BME280;51986;52.788;41.368;2023-04-04T04:02:37;98931.50;;;11.10;55.58
65384;BME280;51986;52.788;41.368;2023-04-04T04:05:06;98959.28;;;11.15;55.99
65384;BME280;51986;52.788;41.368;2023-04-04T04:07:33;98972.06;;;11.20;55.92
65384;BME280;51986;52.788;41.368;2023-04-04T04:10:00;98953.34;;;11.11;56.05
65384;BME280;51986;52.788;41.368;2023-04-04T04:12:27;98964.13;;;11.20;56.20
65384;BME280;51986;52.788;41.368;2023-04-04T04:14:54;98956.56;;;11.42;55.96
65384;BME280;51986;52.788;41.368;2023-04-04T04:17:21;98926.56;;;11.32;56.51
65384;BME280;51986;52.788;41.368;2023-04-04T04:19:48;98954.34;;;11.60;55.57
65384;BME280;51986;52.788;41.368;2023-04-04T04:22:16;98968.59;;;11.86;55.48
65384;BME280;51986;52.788;41.368;2023-04-04T04:24:43;98965.09;;;11.93;54.93
65384;BME280;51986;52.788;41.368;2023-04-04T04:27:10;98968.38;;;12.17;54.61
65384;BME280;51986;52.788;41.368;2023-04-04T04:29:37;98979.06;;;12.29;53.99
65384;BME280;51986;52.788;41.368;2023-04-04T04:32:04;98976.38;;;12.66;53.75
65384;BME280;51986;52.788;41.368;2023-04-04T04:34:35;98975.66;;;12.65;53.79
65384;BME280;51986;52.788;41.368;2023-04-04T04:37:02;98966.81;;;12.88;52.62
65384;BME280;51986;52.788;41.368;2023-04-04T04:39:37;98985.75;;;13.19;52.50
65384;BME280;51986;52.788;41.368;2023-04-04T04:42:24;98968.59;;;13.24;51.72
65384;BME280;51986;52.788;41.368;2023-04-04T04:44:55;98976.19;;;13.38;51.95
65384;BME280;51986;52.788;41.368;2023-04-04T04:47:23;98973.25;;;13.49;51.99
65384;BME280;51986;52.788;41.368;2023-04-04T04:49:51;98980.81;;;13.50;51.64
65384;BME280;51986;52.788;41.368;2023-04-04T04:52:24;98981.50;;;13.67;52.08
65384;BME280;51986;52.788;41.368;2023-04-04T04:54:51;98973.44;;;13.71;52.04
65384;BME280;51986;52.788;41.368;2023-04-04T04:57:18;98970.88;;;13.54;52.09
65384;BME280;51986;52.788;41.368;2023-04-04T04:59:45;98973.63;;;13.34;52.48
65384;BME280;51986;52.788;41.368;2023-04-04T05:02:14;98980.88;;;13.18;53.13
65384;BME280;51986;52.788;41.368;2023-04-04T05:04:45;98971.25;;;13.24;53.08
65384;BME280;51986;52.788;41.368;2023-04-04T05:07:14;99002.81;;;13.18;52.63
65384;BME280;51986;52.788;41.368;2023-04-04T05:09:43;98992.75;;;12.60;54.07
65384;BME280;51986;52.788;41.368;2023-04-04T05:12:11;98992.59;;;12.68;53.98
65384;BME280;51986;52.788;41.368;2023-04-04T05:14:42;98991.38;;;12.88;53.90
65384;BME280;51986;52.788;41.368;2023-04-04T05:17:28;99015.47;;;13.10;53.30
65384;BME280;51986;52.788;41.368;2023-04-04T05:20:03;99016.97;;;13.11;53.11
65384;BME280;51986;52.788;41.368;2023-04-04T05:22:31;99007.16;;;13.41;52.99
65384;BME280;51986;52.788;41.368;2023-04-04T05:24:58;99010.72;;;13.63;53.08
65384;BME280;51986;52.788;41.368;2023-04-04T05:27:25;99000.34;;;13.98;51.47
65384;BME280;51986;52.788;41.368;2023-04-04T05:30:01;99016.97;;;13.86;51.99
65384;BME280;51986;52.788;41.368;2023-04-04T05:32:39;99003.41;;;13.55;52.72
65384;BME280;51986;52.788;41.368;2023-04-04T05:35:12;98981.97;;;13.91;52.49
65384;BME280;51986;52.788;41.368;2023-04-04T05:37:39;99017.78;;;13.83;52.46
65384;BME280;51986;52.788;41.368;2023-04-04T05:40:10;99021.34;;;13.63;52.87
65384;BME280;51986;52.788;41.368;2023-04-04T05:42:38;99008.13;;;13.47;52.58
65384;BME280;51986;52.788;41.368;2023-04-04T05:45:06;99027.63;;;13.41;54.22
65384;BME280;51986;52.788;41.368;2023-04-04T05:47:33;99015.94;;;13.38;53.60
65384;BME280;51986;52.788;41.368;2023-04-04T05:50:01;99027.75;;;13.50;53.87
65384;BME280;51986;52.788;41.368;2023-04-04T05:52:31;99017.78;;;13.54;53.15
65384;BME280;51986;52.788;41.368;2023-04-04T05:54:58;99027.06;;;13.62;53.63
65384;BME280;51986;52.788;41.368;2023-04-04T05:57:28;99024.13;;;13.73;52.82
65384;BME280;51986;52.788;41.368;2023-04-04T05:59:57;99023.94;;;14.09;52.03
65384;BME280;51986;52.788;41.368;2023-04-04T06:02:24;99018.16;;;14.27;50.55
65384;BME280;51986;52.788;41.368;2023-04-04T06:04:56;99039.03;;;14.25;52.00
65384;BME280;51986;52.788;41.368;2023-04-04T06:07:30;99020.09;;;14.52;51.70
65384;BME280;51986;52.788;41.368;2023-04-04T06:09:57;99013.91;;;14.67;50.53
65384;BME280;51986;52.788;41.368;2023-04-04T06:12:24;99026.25;;;14.74;50.44
65384;BME280;51986;52.788;41.368;2023-04-04T06:14:52;99003.00;;;14.65;50.77
65384;BME280;51986;52.788;41.368;2023-04-04T06:17:21;99016.69;;;14.77;51.51
65384;BME280;51986;52.788;41.368;2023-04-04T06:19:49;99017.75;;;14.66;51.81
65384;BME280;51986;52.788;41.368;2023-04-04T06:22:16;99028.78;;;14.52;53.16
65384;BME280;51986;52.788;41.368;2023-04-04T06:24:47;99019.41;;;14.35;52.69
65384;BME280;51986;52.788;41.368;2023-04-04T06:27:14;99018.16;;;15.03;51.48
65384;BME280;51986;52.788;41.368;2023-04-04T06:29:41;99048.53;;;14.77;51.80
65384;BME280;51986;52.788;41.368;2023-04-04T06:32:08;99048.63;;;14.48;52.30
65384;BME280;51986;52.788;41.368;2023-04-04T06:34:38;99045.31;;;14.31;52.10
65384;BME280;51986;52.788;41.368;2023-04-04T06:37:06;99035.34;;;14.22;52.88
65384;BME280;51986;52.788;41.368;2023-04-04T06:39:39;99045.53;;;13.95;53.30
65384;BME280;51986;52.788;41.368;2023-04-04T06:42:14;99037.22;;;13.93;53.07
65384;BME280;51986;52.788;41.368;2023-04-04T06:44:46;99033.25;;;13.72;53.96
65384;BME280;51986;52.788;41.368;2023-04-04T06:47:13;99040.16;;;13.53;53.32
65384;BME280;51986;52.788;41.368;2023-04-04T06:49:40;99036.41;;;13.67;53.62
65384;BME280;51986;52.788;41.368;2023-04-04T06:52:07;99037.47;;;13.40;53.55
65384;BME280;51986;52.788;41.368;2023-04-04T06:54:34;99039.78;;;13.38;53.90
65384;BME280;51986;52.788;41.368;2023-04-04T06:57:01;99025.50;;;13.48;54.15
65384;BME280;51986;52.788;41.368;2023-04-04T06:59:28;99034.81;;;13.40;54.39
65384;BME280;51986;52.788;41.368;2023-04-04T07:01:56;99042.00;;;13.56;54.48
65384;BME280;51986;52.788;41.368;2023-04-04T07:04:23;98999.69;;;13.52;54.28
65384;BME280;51986;52.788;41.368;2023-04-04T07:06:50;99024.59;;;13.55;54.55
65384;BME280;51986;52.788;41.368;2023-04-04T07:09:17;99045.00;;;13.25;55.23
65384;BME280;51986;52.788;41.368;2023-04-04T07:11:55;99032.41;;;13.29;54.55
65384;BME280;51986;52.788;41.368;2023-04-04T07:14:22;99037.28;;;13.47;54.60
65384;BME280;51986;52.788;41.368;2023-04-04T07:16:49;99034.47;;;13.54;54.04
65384;BME280;51986;52.788;41.368;2023-04-04T07:19:15;99035.88;;;13.43;54.49
65384;BME280;51986;52.788;41.368;2023-04-04T07:21:42;99037.56;;;13.66;54.07
65384;BME280;51986;52.788;41.368;2023-04-04T07:24:09;99040.50;;;13.38;54.88
65384;BME280;51986;52.788;41.368;2023-04-04T07:26:36;99047.59;;;13.58;54.72
65384;BME280;51986;52.788;41.368;2023-04-04T07:29:03;99050.97;;;13.75;54.88
65384;BME280;51986;52.788;41.368;2023-04-04T07:31:31;99056.19;;;14.07;54.36
65384;BME280;51986;52.788;41.368;2023-04-04T07:33:57;99057.72;;;14.21;54.12
65384;BME280;51986;52.788;41.368;2023-04-04T07:36:24;99064.69;;;14.15;54.05
65384;BME280;51986;52.788;41.368;2023-04-04T07:38:51;99047.88;;;14.22;53.36
65384;BME280;51986;52.788;41.368;2023-04-04T07:41:18;99050.97;;;14.04;53.43
65384;BME280;51986;52.788;41.368;2023-04-04T07:43:45;99079.63;;;14.09;53.03
65384;BME280;51986;52.788;41.368;2023-04-04T07:46:12;99067.19;;;14.06;53.57
65384;BME280;51986;52.788;41.368;2023-04-04T07:48:39;99067.03;;;13.84;53.57
65384;BME280;51986;52.788;41.368;2023-04-04T07:51:06;99076.47;;;13.69;54.17
65384;BME280;51986;52.788;41.368;2023-04-04T07:53:33;99077.06;;;13.76;54.27
65384;BME280;51986;52.788;41.368;2023-04-04T07:56:00;99062.38;;;13.88;53.97
65384;BME280;51986;52.788;41.368;2023-04-04T07:58:27;99053.72;;;14.00;53.25
65384;BME280;51986;52.788;41.368;2023-04-04T08:00:55;99087.88;;;14.11;53.23
65384;BME280;51986;52.788;41.368;2023-04-04T08:03:22;99074.19;;;14.29;53.26
65384;BME280;51986;52.788;41.368;2023-04-04T08:05:50;99065.38;;;14.32;52.94
65384;BME280;51986;52.788;41.368;2023-04-04T08:08:17;99061.88;;;14.35;52.49
65384;BME280;51986;52.788;41.368;2023-04-04T08:10:44;99073.06;;;14.55;52.40
65384;BME280;51986;52.788;41.368;2023-04-04T08:13:12;99067.53;;;14.50;52.36
65384;BME280;51986;52.788;41.368;2023-04-04T08:15:39;99070.09;;;14.79;52.04
65384;BME280;51986;52.788;41.368;2023-04-04T08:18:06;99067.97;;;14.74;51.44
65384;BME280;51986;52.788;41.368;2023-04-04T08:20:33;99074.97;;;15.18;50.92
65384;BME280;51986;52.788;41.368;2023-04-04T08:23:00;99065.56;;;15.52;49.62
65384;BME280;51986;52.788;41.368;2023-04-04T08:25:27;99080.78;;;15.39;48.74
65384;BME280;51986;52.788;41.368;2023-04-04T08:27:54;99088.03;;;15.26;48.73
65384;BME280;51986;52.788;41.368;2023-04-04T08:30:21;99090.16;;;15.18;49.00
65384;BME280;51986;52.788;41.368;2023-04-04T08:32:48;99076.13;;;14.92;49.69
65384;BME280;51986;52.788;41.368;2023-04-04T08:35:15;99103.88;;;15.04;49.62
65384;BME280;51986;52.788;41.368;2023-04-04T08:37:45;99098.97;;;15.02;50.16
65384;BME280;51986;52.788;41.368;2023-04-04T08:40:12;99086.56;;;15.25;49.45
65384;BME280;51986;52.788;41.368;2023-04-04T08:42:40;99100.47;;;15.16;49.65
65384;BME280;51986;52.788;41.368;2023-04-04T08:45:08;99101.84;;;14.95;50.04
65384;BME280;51986;52.788;41.368;2023-04-04T08:47:37;99109.88;;;14.53;50.83
65384;BME280;51986;52.788;41.368;2023-04-04T08:50:06;99085.75;;;14.35;50.93
65384;BME280;51986;52.788;41.368;2023-04-04T08:52:36;99104.31;;;14.22;51.23
65384;BME280;51986;52.788;41.368;2023-04-04T08:55:04;99096.34;;;14.22;51.30
65384;BME280;51986;52.788;41.368;2023-04-04T08:57:32;99094.31;;;14.13;51.16
65384;BME280;51986;52.788;41.368;2023-04-04T08:59:59;99118.66;;;14.08;51.69
65384;BME280;51986;52.788;41.368;2023-04-04T09:02:38;99125.81;;;13.95;52.51
65384;BME280;51986;52.788;41.368;2023-04-04T09:05:07;99128.31;;;13.86;52.54
65384;BME280;51986;52.788;41.368;2023-04-04T09:07:34;99119.75;;;13.66;53.10
65384;BME280;51986;52.788;41.368;2023-04-04T09:10:07;99137.97;;;13.47;53.30
65384;BME280;51986;52.788;41.368;2023-04-04T09:12:36;99132.31;;;13.61;53.83
65384;BME280;51986;52.788;41.368;2023-04-04T09:15:03;99129.44;;;13.39;54.49
65384;BME280;51986;52.788;41.368;2023-04-04T09:17:30;99153.13;;;13.30;55.23
65384;BME280;51986;52.788;41.368;2023-04-04T09:20:01;99154.69;;;13.28;55.30
65384;BME280;51986;52.788;41.368;2023-04-04T09:22:28;99145.22;;;13.10;56.02
65384;BME280;51986;52.788;41.368;2023-04-04T09:24:55;99145.50;;;12.96;57.09
65384;BME280;51986;52.788;41.368;2023-04-04T09:27:22;99153.06;;;12.78;58.46
65384;BME280;51986;52.788;41.368;2023-04-04T09:29:49;99163.31;;;12.76;58.44
65384;BME280;51986;52.788;41.368;2023-04-04T09:32:16;99124.97;;;12.84;58.77
65384;BME280;51986;52.788;41.368;2023-04-04T09:34:46;99168.56;;;12.96;58.84
65384;BME280;51986;52.788;41.368;2023-04-04T09:37:15;99150.50;;;13.10;57.90
65384;BME280;51986;52.788;41.368;2023-04-04T09:39:42;99135.47;;;13.24;57.00
65384;BME280;51986;52.788;41.368;2023-04-04T09:42:10;99144.75;;;13.32;57.13
65384;BME280;51986;52.788;41.368;2023-04-04T09:44:37;99140.53;;;13.67;56.59
65384;BME280;51986;52.788;41.368;2023-04-04T09:47:30;99146.50;;;13.38;57.02
65384;BME280;51986;52.788;41.368;2023-04-04T09:49:58;99169.34;;;13.32;56.72
65384;BME280;51986;52.788;41.368;2023-04-04T09:52:26;99146.09;;;13.56;55.89
65384;BME280;51986;52.788;41.368;2023-04-04T09:54:56;99136.97;;;13.74;55.13
65384;BME280;51986;52.788;41.368;2023-04-04T09:57:31;99140.59;;;13.63;55.38
65384;BME280;51986;52.788;41.368;2023-04-04T09:59:59;99136.53;;;13.59;55.63
65384;BME280;51986;52.788;41.368;2023-04-04T10:02:29;99144.94;;;14.19;55.09
65384;BME280;51986;52.788;41.368;2023-04-04T10:04:56;99156.53;;;14.67;52.83
65384;BME280;51986;52.788;41.368;2023-04-04T10:07:32;99134.34;;;14.74;52.63
65384;BME280;51986;52.788;41.368;2023-04-04T10:10:06;99141.16;;;14.75;52.58
65384;BME280;51986;52.788;41.368;2023-04-04T10:12:35;99147.84;;;14.79;51.77
65384;BME280;51986;52.788;41.368;2023-04-04T10:15:03;99157.41;;;14.89;51.74
65384;BME280;51986;52.788;41.368;2023-04-04T10:17:35;99140.84;;;15.11;50.63
65384;BME280;51986;52.788;41.368;2023-04-04T10:20:21;99142.56;;;15.17;50.98
65384;BME280;51986;52.788;41.368;2023-04-04T10:22:48;99165.84;;;15.39;50.56
65384;BME280;51986;52.788;41.368;2023-04-04T10:25:15;99138.41;;;15.16;51.12
65384;BME280;51986;52.788;41.368;2023-04-04T10:27:42;99145.84;;;15.09;51.57
65384;BME280;51986;52.788;41.368;2023-04-04T10:30:10;99147.22;;;15.26;51.55
65384;BME280;51986;52.788;41.368;2023-04-04T10:35:30;99146.69;;;15.44;50.84
65384;BME280;51986;52.788;41.368;2023-04-04T10:37:59;99153.72;;;15.25;52.30
65384;BME280;51986;52.788;41.368;2023-04-04T10:40:34;99152.00;;;15.31;51.59
65384;BME280;51986;52.788;41.368;2023-04-04T10:43:04;99139.03;;;15.21;50.42
65384;BME280;51986;52.788;41.368;2023-04-04T10:45:32;99170.81;;;15.50;50.88
65384;BME280;51986;52.788;41.368;2023-04-04T10:48:02;99152.53;;;15.52;50.77
65384;BME280;51986;52.788;41.368;2023-04-04T10:50:29;99180.06;;;15.71;50.49
65384;BME280;51986;52.788;41.368;2023-04-04T10:52:56;99161.19;;;15.78;48.43
65384;BME280;51986;52.788;41.368;2023-04-04T10:55:23;99138.06;;;15.65;48.70
65384;BME280;51986;52.788;41.368;2023-04-04T10:57:51;99141.75;;;16.03;48.02
65384;BME280;51986;52.788;41.368;2023-04-04T11:00:19;99138.06;;;16.00;46.30
65384;BME280;51986;52.788;41.368;2023-04-04T11:05:30;99153.78;;;16.51;46.55
65384;BME280;51986;52.788;41.368;2023-04-04T11:08:18;99153.53;;;16.36;45.52
65384;BME280;51986;52.788;41.368;2023-04-04T11:10:53;99140.38;;;16.33;45.69
65384;BME280;51986;52.788;41.368;2023-04-04T11:13:57;99176.47;;;16.34;45.64
65384;BME280;51986;52.788;41.368;2023-04-04T11:16:25;99158.19;;;16.45;46.01
65384;BME280;51986;52.788;41.368;2023-04-04T11:18:58;99184.59;;;16.17;46.34
65384;BME280;51986;52.788;41.368;2023-04-04T11:21:31;99169.22;;;16.00;46.93
65384;BME280;51986;52.788;41.368;2023-04-04T11:28:57;99157.81;;;15.64;47.86
65384;BME280;51986;52.788;41.368;2023-04-04T11:31:27;99169.19;;;15.65;47.80
65384;BME280;51986;52.788;41.368;2023-04-04T11:34:14;99181.78;;;15.52;48.35
65384;BME280;51986;52.788;41.368;2023-04-04T11:36:54;99164.34;;;15.38;48.75
65384;BME280;51986;52.788;41.368;2023-04-04T11:42:10;99166.06;;;15.32;49.51
65384;BME280;51986;52.788;41.368;2023-04-04T11:45:02;99188.03;;;15.58;48.22
65384;BME280;51986;52.788;41.368;2023-04-04T11:47:30;99187.19;;;15.35;47.50
65384;BME280;51986;52.788;41.368;2023-04-04T11:52:44;99186.25;;;15.42;47.26
65384;BME280;51986;52.788;41.368;2023-04-04T11:55:18;99175.28;;;15.40;47.34
65384;BME280;51986;52.788;41.368;2023-04-04T11:57:46;99215.28;;;15.36;47.99
65384;BME280;51986;52.788;41.368;2023-04-04T12:00:34;99186.56;;;15.57;47.54
65384;BME280;51986;52.788;41.368;2023-04-04T12:03:03;99190.69;;;15.20;46.98
65384;BME280;51986;52.788;41.368;2023-04-04T12:05:30;99183.25;;;14.89;47.83
65384;BME280;51986;52.788;41.368;2023-04-04T12:08:16;99176.38;;;15.42;46.83
65384;BME280;51986;52.788;41.368;2023-04-04T12:10:44;99182.31;;;15.34;45.87
65384;BME280;51986;52.788;41.368;2023-04-04T12:13:11;99173.06;;;15.13;46.37
65384;BME280;51986;52.788;41.368;2023-04-04T12:15:38;99182.94;;;15.12;46.91
65384;BME280;51986;52.788;41.368;2023-04-04T12:18:06;99169.84;;;15.05;46.99
65384;BME280;51986;52.788;41.368;2023-04-04T12:20:37;99182.69;;;15.07;47.83
65384;BME280;51986;52.788;41.368;2023-04-04T12:23:03;99188.88;;;15.16;47.92
65384;BME280;51986;52.788;41.368;2023-04-04T12:25:31;99191.19;;;14.89;48.26
65384;BME280;51986;52.788;41.368;2023-04-04T12:27:59;99193.31;;;14.81;48.88
65384;BME280;51986;52.788;41.368;2023-04-04T12:30:27;99175.63;;;14.62;49.07
65384;BME280;51986;52.788;41.368;2023-04-04T12:32:55;99199.00;;;14.67;49.48
65384;BME280;51986;52.788;41.368;2023-04-04T12:35:22;99195.88;;;14.85;48.88
65384;BME280;51986;52.788;41.368;2023-04-04T12:38:15;99193.00;;;14.92;49.19
65384;BME280;51986;52.788;41.368;2023-04-04T12:40:43;99191.00;;;14.96;49.05
65384;BME280;51986;52.788;41.368;2023-04-04T12:43:16;99204.59;;;14.98;48.41
65384;BME280;51986;52.788;41.368;2023-04-04T12:45:43;99214.28;;;15.05;48.50
65384;BME280;51986;52.788;41.368;2023-04-04T12:48:14;99198.44;;;15.14;48.26
65384;BME280;51986;52.788;41.368;2023-04-04T12:53:23;99220.34;;;15.18;48.56
65384;BME280;51986;52.788;41.368;2023-04-04T12:55:59;99201.25;;;15.23;48.50
65384;BME280;51986;52.788;41.368;2023-04-04T12:58:27;99183.69;;;15.26;47.89
65384;BME280;51986;52.788;41.368;2023-04-04T13:00:58;99207.31;;;15.24;48.03
65384;BME280;51986;52.788;41.368;2023-04-04T13:06:16;99196.69;;;15.36;48.45
65384;BME280;51986;52.788;41.368;2023-04-04T13:08:53;99185.09;;;15.43;48.27
65384;BME280;51986;52.788;41.368;2023-04-04T13:11:21;99190.38;;;15.17;48.81
65384;BME280;51986;52.788;41.368;2023-04-04T13:13:59;99183.69;;;15.26;49.13
65384;BME280;51986;52.788;41.368;2023-04-04T13:16:32;99216.88;;;15.34;49.08
65384;BME280;51986;52.788;41.368;2023-04-04T13:18:59;99203.84;;;15.10;49.54
65384;BME280;51986;52.788;41.368;2023-04-04T13:21:26;99216.81;;;15.21;49.10